sensor_id;sensor_type;location;lat;lon;timestamp;pressure;altitude;pressure_sealevel;temperature;humidity
85984;BME280;76557;45.488;12.254;2024-03-07T00:00:35;101644.56;;;9.75;81.26
85984;BME280;76557;45.488;12.254;2024-03-07T00:04:31;101653.44;;;9.77;81.12
85984;BME280;76557;45.488;12.254;2024-03-07T00:08:26;101647.75;;;9.79;80.39
85984;BME280;76557;45.488;12.254;2024-03-07T00:12:22;101651.34;;;9.79;81.52
85984;BME280;76557;45.488;12.254;2024-03-07T00:16:18;101653.72;;;9.82;80.78
85984;BME280;76557;45.488;12.254;2024-03-07T00:20:13;101652.22;;;9.80;80.24
85984;BME280;76557;45.488;12.254;2024-03-07T00:24:14;101649.28;;;9.81;80.72
85984;BME280;76557;45.488;12.254;2024-03-07T00:28:09;101659.88;;;9.84;81.04
85984;BME280;76557;45.488;12.254;2024-03-07T00:32:05;101656.09;;;9.85;81.46
85984;BME280;76557;45.488;12.254;2024-03-07T00:36:00;101647.22;;;9.83;81.03
85984;BME280;76557;45.488;12.254;2024-03-07T00:39:56;101643.41;;;9.84;81.42
85984;BME280;76557;45.488;12.254;2024-03-07T00:43:51;101639.63;;;9.85;81.97
85984;BME280;76557;45.488;12.254;2024-03-07T00:47:47;101645.50;;;9.82;82.52
85984;BME280;76557;45.488;12.254;2024-03-07T00:51:43;101643.97;;;9.80;82.45
85984;BME280;76557;45.488;12.254;2024-03-07T00:55:39;101644.16;;;9.78;82.35
85984;BME280;76557;45.488;12.254;2024-03-07T00:59:35;101639.91;;;9.76;82.29
85984;BME280;76557;45.488;12.254;2024-03-07T01:03:30;101643.31;;;9.78;82.09
85984;BME280;76557;45.488;12.254;2024-03-07T01:07:25;101639.06;;;9.75;81.53
85984;BME280;76557;45.488;12.254;2024-03-07T01:11:23;101639.81;;;9.69;82.07
85984;BME280;76557;45.488;12.254;2024-03-07T01:15:18;101646.34;;;9.68;82.42
85984;BME280;76557;45.488;12.254;2024-03-07T01:19:14;101644.63;;;9.67;82.30
85984;BME280;76557;45.488;12.254;2024-03-07T01:23:10;101634.88;;;9.65;81.94
85984;BME280;76557;45.488;12.254;2024-03-07T01:27:06;101632.13;;;9.65;82.30
85984;BME280;76557;45.488;12.254;2024-03-07T01:31:01;101630.56;;;9.70;82.08
85984;BME280;76557;45.488;12.254;2024-03-07T01:34:56;101622.59;;;9.75;81.73
85984;BME280;76557;45.488;12.254;2024-03-07T01:38:52;101622.19;;;9.78;81.33
85984;BME280;76557;45.488;12.254;2024-03-07T01:42:50;101620.50;;;9.77;81.54
85984;BME280;76557;45.488;12.254;2024-03-07T01:46:47;101621.16;;;9.79;82.17
85984;BME280;76557;45.488;12.254;2024-03-07T01:50:45;101625.44;;;9.82;81.50
85984;BME280;76557;45.488;12.254;2024-03-07T01:54:41;101626.47;;;9.81;81.33
85984;BME280;76557;45.488;12.254;2024-03-07T01:58:37;101626.38;;;9.74;81.14
85984;BME280;76557;45.488;12.254;2024-03-07T02:02:33;101619.19;;;9.73;81.13
85984;BME280;76557;45.488;12.254;2024-03-07T02:06:29;101613.34;;;9.76;81.36
85984;BME280;76557;45.488;12.254;2024-03-07T02:10:24;101601.41;;;9.69;80.80
85984;BME280;76557;45.488;12.254;2024-03-07T02:14:20;101613.69;;;9.73;80.95
85984;BME280;76557;45.488;12.254;2024-03-07T02:18:15;101616.72;;;9.78;81.02
85984;BME280;76557;45.488;12.254;2024-03-07T02:22:11;101612.56;;;9.82;81.07
85984;BME280;76557;45.488;12.254;2024-03-07T02:26:06;101614.28;;;9.83;81.31
85984;BME280;76557;45.488;12.254;2024-03-07T02:30:04;101609.16;;;9.80;81.38
85984;BME280;76557;45.488;12.254;2024-03-07T02:34:01;101620.13;;;9.80;81.72
85984;BME280;76557;45.488;12.254;2024-03-07T02:37:58;101617.56;;;9.79;81.76
85984;BME280;76557;45.488;12.254;2024-03-07T02:41:53;101613.78;;;9.80;81.66
85984;BME280;76557;45.488;12.254;2024-03-07T02:45:48;101615.31;;;9.82;81.95
85984;BME280;76557;45.488;12.254;2024-03-07T02:49:44;101608.13;;;9.81;82.26
85984;BME280;76557;45.488;12.254;2024-03-07T02:53:40;101609.81;;;9.82;82.58
85984;BME280;76557;45.488;12.254;2024-03-07T02:57:35;101604.69;;;9.79;82.91
85984;BME280;76557;45.488;12.254;2024-03-07T03:01:31;101595.81;;;9.77;83.13
85984;BME280;76557;45.488;12.254;2024-03-07T03:05:27;101605.38;;;9.81;83.09
85984;BME280;76557;45.488;12.254;2024-03-07T03:09:22;101607.09;;;9.82;82.95
85984;BME280;76557;45.488;12.254;2024-03-07T03:13:19;101612.19;;;9.85;83.12
85984;BME280;76557;45.488;12.254;2024-03-07T03:17:14;101608.03;;;9.89;83.15
85984;BME280;76557;45.488;12.254;2024-03-07T03:21:10;101616.13;;;9.97;82.68
85984;BME280;76557;45.488;12.254;2024-03-07T03:25:06;101613.88;;;10.01;82.94
85984;BME280;76557;45.488;12.254;2024-03-07T03:29:02;101608.56;;;10.00;82.11
85984;BME280;76557;45.488;12.254;2024-03-07T03:32:58;101616.13;;;9.97;82.23
85984;BME280;76557;45.488;12.254;2024-03-07T03:36:53;101614.91;;;10.00;81.95
85984;BME280;76557;45.488;12.254;2024-03-07T03:40:48;101612.00;;;10.02;82.15
85984;BME280;76557;45.488;12.254;2024-03-07T03:44:44;101619.56;;;10.00;82.05
85984;BME280;76557;45.488;12.254;2024-03-07T03:48:39;101624.00;;;10.01;82.22
85984;BME280;76557;45.488;12.254;2024-03-07T03:52:39;101630.16;;;10.03;82.16
85984;BME280;76557;45.488;12.254;2024-03-07T03:56:34;101620.41;;;10.00;82.40
85984;BME280;76557;45.488;12.254;2024-03-07T04:00:30;101627.22;;;10.04;82.56
85984;BME280;76557;45.488;12.254;2024-03-07T04:04:25;101616.44;;;10.03;82.34
85984;BME280;76557;45.488;12.254;2024-03-07T04:08:21;101615.41;;;10.04;81.98
85984;BME280;76557;45.488;12.254;2024-03-07T04:12:16;101617.47;;;10.02;81.71
85984;BME280;76557;45.488;12.254;2024-03-07T04:16:14;101615.78;;;10.01;82.08
85984;BME280;76557;45.488;12.254;2024-03-07T04:20:10;101623.34;;;9.98;82.45
85984;BME280;76557;45.488;12.254;2024-03-07T04:24:05;101625.03;;;10.00;83.52
85984;BME280;76557;45.488;12.254;2024-03-07T04:28:01;101620.41;;;10.00;83.04
85984;BME280;76557;45.488;12.254;2024-03-07T04:31:56;101618.88;;;9.97;83.20
85984;BME280;76557;45.488;12.254;2024-03-07T04:35:52;101616.13;;;9.97;83.83
85984;BME280;76557;45.488;12.254;2024-03-07T04:39:48;101613.97;;;9.93;83.78
85984;BME280;76557;45.488;12.254;2024-03-07T04:43:43;101620.31;;;9.93;83.80
85984;BME280;76557;45.488;12.254;2024-03-07T04:47:41;101609.72;;;9.90;84.22
85984;BME280;76557;45.488;12.254;2024-03-07T04:51:37;101623.34;;;9.98;84.20
85984;BME280;76557;45.488;12.254;2024-03-07T04:55:32;101617.97;;;9.90;84.43
85984;BME280;76557;45.488;12.254;2024-03-07T04:59:28;101626.56;;;9.87;84.12
85984;BME280;76557;45.488;12.254;2024-03-07T05:03:23;101616.25;;;9.89;84.63
85984;BME280;76557;45.488;12.254;2024-03-07T05:07:18;101622.03;;;9.94;84.70
85984;BME280;76557;45.488;12.254;2024-03-07T05:11:14;101629.22;;;9.95;84.66
85984;BME280;76557;45.488;12.254;2024-03-07T05:15:09;101620.72;;;9.90;84.06
85984;BME280;76557;45.488;12.254;2024-03-07T05:19:05;101620.03;;;9.88;84.12
85984;BME280;76557;45.488;12.254;2024-03-07T05:23:00;101620.81;;;9.82;84.42
85984;BME280;76557;45.488;12.254;2024-03-07T05:26:56;101631.88;;;9.74;85.38
85984;BME280;76557;45.488;12.254;2024-03-07T05:30:52;101634.59;;;9.60;86.13
85984;BME280;76557;45.488;12.254;2024-03-07T05:34:48;101640.72;;;9.47;86.92
85984;BME280;76557;45.488;12.254;2024-03-07T05:38:44;101641.47;;;9.41;87.34
85984;BME280;76557;45.488;12.254;2024-03-07T05:42:39;101644.41;;;9.39;86.63
85984;BME280;76557;45.488;12.254;2024-03-07T05:46:39;101650.72;;;9.40;87.17
85984;BME280;76557;45.488;12.254;2024-03-07T05:50:52;101645.63;;;9.37;87.43
85984;BME280;76557;45.488;12.254;2024-03-07T05:54:48;101649.41;;;9.36;87.21
85984;BME280;76557;45.488;12.254;2024-03-07T05:58:43;101651.19;;;9.29;87.83
85984;BME280;76557;45.488;12.254;2024-03-07T06:02:39;101654.28;;;9.26;88.05
85984;BME280;76557;45.488;12.254;2024-03-07T06:06:35;101664.59;;;9.24;87.13
85984;BME280;76557;45.488;12.254;2024-03-07T06:10:30;101659.47;;;9.21;87.42
85984;BME280;76557;45.488;12.254;2024-03-07T06:14:26;101669.78;;;9.18;87.90
85984;BME280;76557;45.488;12.254;2024-03-07T06:18:21;101666.00;;;9.20;88.32
85984;BME280;76557;45.488;12.254;2024-03-07T06:22:17;101664.97;;;9.21;87.92
85984;BME280;76557;45.488;12.254;2024-03-07T06:26:13;101668.16;;;9.24;87.60
85984;BME280;76557;45.488;12.254;2024-03-07T06:30:12;101671.41;;;9.28;87.45
85984;BME280;76557;45.488;12.254;2024-03-07T06:34:07;101670.00;;;9.32;86.89
85984;BME280;76557;45.488;12.254;2024-03-07T06:38:09;101666.72;;;9.36;86.65
85984;BME280;76557;45.488;12.254;2024-03-07T06:42:05;101671.72;;;9.33;85.09
85984;BME280;76557;45.488;12.254;2024-03-07T06:46:00;101669.94;;;9.40;86.62
85984;BME280;76557;45.488;12.254;2024-03-07T06:49:56;101679.88;;;9.41;88.05
85984;BME280;76557;45.488;12.254;2024-03-07T06:53:52;101676.09;;;9.42;88.54
85984;BME280;76557;45.488;12.254;2024-03-07T06:57:48;101687.34;;;9.47;88.42
85984;BME280;76557;45.488;12.254;2024-03-07T07:01:43;101689.34;;;9.53;88.87
85984;BME280;76557;45.488;12.254;2024-03-07T07:05:39;101688.88;;;9.49;87.24
85984;BME280;76557;45.488;12.254;2024-03-07T07:09:36;101681.69;;;9.48;83.41
85984;BME280;76557;45.488;12.254;2024-03-07T07:13:31;101691.34;;;9.59;83.92
85984;BME280;76557;45.488;12.254;2024-03-07T07:17:27;101690.91;;;9.70;86.12
85984;BME280;76557;45.488;12.254;2024-03-07T07:21:24;101702.81;;;9.77;86.07
85984;BME280;76557;45.488;12.254;2024-03-07T07:25:19;101706.53;;;9.84;86.13
85984;BME280;76557;45.488;12.254;2024-03-07T07:29:16;101696.28;;;9.78;84.36
85984;BME280;76557;45.488;12.254;2024-03-07T07:33:12;101695.53;;;9.84;83.78
85984;BME280;76557;45.488;12.254;2024-03-07T07:37:08;101679.00;;;9.92;83.55
85984;BME280;76557;45.488;12.254;2024-03-07T07:41:04;101685.06;;;10.03;84.46
85984;BME280;76557;45.488;12.254;2024-03-07T07:45:01;101689.41;;;10.12;84.16
85984;BME280;76557;45.488;12.254;2024-03-07T07:48:57;101696.47;;;10.29;84.32
85984;BME280;76557;45.488;12.254;2024-03-07T07:52:55;101703.44;;;10.46;84.66
85984;BME280;76557;45.488;12.254;2024-03-07T07:56:51;101718.38;;;10.58;84.30
85984;BME280;76557;45.488;12.254;2024-03-07T08:00:46;101711.34;;;10.70;83.36
85984;BME280;76557;45.488;12.254;2024-03-07T08:04:44;101705.72;;;10.79;83.52
85984;BME280;76557;45.488;12.254;2024-03-07T08:08:39;101711.00;;;10.95;83.05
85984;BME280;76557;45.488;12.254;2024-03-07T08:12:34;101715.19;;;11.12;81.31
85984;BME280;76557;45.488;12.254;2024-03-07T08:16:32;101708.13;;;11.24;79.73
85984;BME280;76557;45.488;12.254;2024-03-07T08:20:28;101705.66;;;11.29;79.21
85984;BME280;76557;45.488;12.254;2024-03-07T08:24:23;101704.47;;;11.38;77.52
85984;BME280;76557;45.488;12.254;2024-03-07T08:28:19;101704.56;;;11.51;77.41
85984;BME280;76557;45.488;12.254;2024-03-07T08:32:14;101700.22;;;11.64;76.97
85984;BME280;76557;45.488;12.254;2024-03-07T08:36:09;101696.22;;;11.66;76.38
85984;BME280;76557;45.488;12.254;2024-03-07T08:40:07;101701.44;;;11.76;75.88
85984;BME280;76557;45.488;12.254;2024-03-07T08:44:04;101692.88;;;11.71;75.45
85984;BME280;76557;45.488;12.254;2024-03-07T08:48:00;101686.94;;;11.67;74.85
85984;BME280;76557;45.488;12.254;2024-03-07T08:51:55;101692.25;;;11.69;75.28
85984;BME280;76557;45.488;12.254;2024-03-07T08:55:51;101696.28;;;11.73;75.64
85984;BME280;76557;45.488;12.254;2024-03-07T08:59:49;101715.03;;;11.84;75.58
85984;BME280;76557;45.488;12.254;2024-03-07T09:03:45;101719.25;;;11.80;75.93
85984;BME280;76557;45.488;12.254;2024-03-07T09:07:40;101723.03;;;11.57;76.22
85984;BME280;76557;45.488;12.254;2024-03-07T09:11:35;101727.44;;;11.52;75.95
85984;BME280;76557;45.488;12.254;2024-03-07T09:15:31;101734.16;;;11.43;76.09
85984;BME280;76557;45.488;12.254;2024-03-07T09:19:28;101735.13;;;11.57;75.02
85984;BME280;76557;45.488;12.254;2024-03-07T09:23:24;101741.75;;;11.41;77.77
85984;BME280;76557;45.488;12.254;2024-03-07T09:27:19;101742.97;;;11.38;77.66
85984;BME280;76557;45.488;12.254;2024-03-07T09:31:17;101738.06;;;11.34;77.98
85984;BME280;76557;45.488;12.254;2024-03-07T09:35:12;101746.75;;;11.37;78.97
85984;BME280;76557;45.488;12.254;2024-03-07T09:39:08;101754.03;;;11.45;78.01
85984;BME280;76557;45.488;12.254;2024-03-07T09:43:06;101757.00;;;11.43;76.56
85984;BME280;76557;45.488;12.254;2024-03-07T09:47:05;101750.59;;;11.36;76.77
85984;BME280;76557;45.488;12.254;2024-03-07T09:51:02;101750.19;;;11.39;76.04
85984;BME280;76557;45.488;12.254;2024-03-07T09:54:59;101737.75;;;11.22;75.26
85984;BME280;76557;45.488;12.254;2024-03-07T09:58:57;101746.91;;;11.29;76.50
85984;BME280;76557;45.488;12.254;2024-03-07T10:02:56;101760.28;;;11.53;75.56
85984;BME280;76557;45.488;12.254;2024-03-07T10:06:52;101761.72;;;11.49;76.33
85984;BME280;76557;45.488;12.254;2024-03-07T10:10:49;101754.75;;;11.32;75.96
85984;BME280;76557;45.488;12.254;2024-03-07T10:14:55;101761.06;;;11.26;77.03
85984;BME280;76557;45.488;12.254;2024-03-07T10:18:52;101761.47;;;11.23;76.88
85984;BME280;76557;45.488;12.254;2024-03-07T10:22:48;101755.69;;;11.39;75.83
85984;BME280;76557;45.488;12.254;2024-03-07T10:26:46;101761.31;;;11.52;73.51
85984;BME280;76557;45.488;12.254;2024-03-07T10:30:42;101754.22;;;11.65;73.03
85984;BME280;76557;45.488;12.254;2024-03-07T10:34:40;101737.66;;;11.58;71.45
85984;BME280;76557;45.488;12.254;2024-03-07T10:38:41;101747.56;;;11.74;72.71
85984;BME280;76557;45.488;12.254;2024-03-07T10:42:36;101744.66;;;12.03;71.83
85984;BME280;76557;45.488;12.254;2024-03-07T10:46:34;101748.53;;;12.15;71.54
85984;BME280;76557;45.488;12.254;2024-03-07T10:50:35;101751.66;;;12.40;69.13
85984;BME280;76557;45.488;12.254;2024-03-07T10:59:18;101741.69;;;12.39;64.07
85984;BME280;76557;45.488;12.254;2024-03-07T11:03:14;101742.94;;;12.37;64.29
85984;BME280;76557;45.488;12.254;2024-03-07T11:07:10;101736.09;;;12.67;65.22
85984;BME280;76557;45.488;12.254;2024-03-07T11:11:06;101736.50;;;12.64;64.84
85984;BME280;76557;45.488;12.254;2024-03-07T11:15:02;101727.75;;;12.47;65.36
85984;BME280;76557;45.488;12.254;2024-03-07T11:19:26;101734.78;;;12.56;68.97
85984;BME280;76557;45.488;12.254;2024-03-07T11:23:28;101727.28;;;12.44;67.87
85984;BME280;76557;45.488;12.254;2024-03-07T11:27:24;101719.38;;;12.68;68.85
85984;BME280;76557;45.488;12.254;2024-03-07T11:31:26;101718.09;;;12.71;69.63
85984;BME280;76557;45.488;12.254;2024-03-07T11:35:33;101721.44;;;12.60;68.39
85984;BME280;76557;45.488;12.254;2024-03-07T11:39:43;101717.56;;;12.48;69.03
85984;BME280;76557;45.488;12.254;2024-03-07T11:43:40;101715.06;;;12.59;69.33
85984;BME280;76557;45.488;12.254;2024-03-07T11:47:37;101712.63;;;12.37;70.20
85984;BME280;76557;45.488;12.254;2024-03-07T11:51:36;101702.31;;;12.52;70.67
85984;BME280;76557;45.488;12.254;2024-03-07T11:55:37;101697.78;;;12.85;70.14
85984;BME280;76557;45.488;12.254;2024-03-07T11:59:43;101688.09;;;13.02;68.10
85984;BME280;76557;45.488;12.254;2024-03-07T12:03:41;101700.84;;;13.17;68.16
85984;BME280;76557;45.488;12.254;2024-03-07T12:07:37;101700.25;;;13.41;68.24
85984;BME280;76557;45.488;12.254;2024-03-07T12:11:33;101690.69;;;13.50;67.64
85984;BME280;76557;45.488;12.254;2024-03-07T12:15:31;101685.63;;;13.47;66.72
85984;BME280;76557;45.488;12.254;2024-03-07T12:19:28;101681.34;;;13.25;67.13
85984;BME280;76557;45.488;12.254;2024-03-07T12:23:24;101677.50;;;13.12;68.12
85984;BME280;76557;45.488;12.254;2024-03-07T12:27:21;101669.91;;;13.34;67.61
85984;BME280;76557;45.488;12.254;2024-03-07T12:31:16;101669.25;;;13.26;67.94
85984;BME280;76557;45.488;12.254;2024-03-07T12:35:12;101674.06;;;13.10;67.38
85984;BME280;76557;45.488;12.254;2024-03-07T12:39:07;101668.94;;;12.81;67.97
85984;BME280;76557;45.488;12.254;2024-03-07T12:43:20;101671.69;;;12.81;68.76
85984;BME280;76557;45.488;12.254;2024-03-07T12:47:16;101664.66;;;12.72;68.73
85984;BME280;76557;45.488;12.254;2024-03-07T12:51:12;101667.06;;;12.41;70.30
85984;BME280;76557;45.488;12.254;2024-03-07T12:55:11;101665.47;;;12.66;70.15
85984;BME280;76557;45.488;12.254;2024-03-07T12:59:08;101662.09;;;12.70;70.74
85984;BME280;76557;45.488;12.254;2024-03-07T13:03:04;101658.66;;;12.55;70.94
85984;BME280;76557;45.488;12.254;2024-03-07T13:07:00;101655.59;;;12.37;72.20
85984;BME280;76557;45.488;12.254;2024-03-07T13:10:59;101652.53;;;12.60;71.60
85984;BME280;76557;45.488;12.254;2024-03-07T13:14:55;101657.38;;;12.58;70.82
85984;BME280;76557;45.488;12.254;2024-03-07T13:18:53;101658.56;;;12.29;72.23
85984;BME280;76557;45.488;12.254;2024-03-07T13:22:49;101655.19;;;12.33;72.43
85984;BME280;76557;45.488;12.254;2024-03-07T13:26:44;101649.19;;;12.23;73.50
85984;BME280;76557;45.488;12.254;2024-03-07T13:30:41;101649.59;;;12.20;72.26
85984;BME280;76557;45.488;12.254;2024-03-07T13:34:37;101644.53;;;12.30;72.04
85984;BME280;76557;45.488;12.254;2024-03-07T13:38:32;101651.69;;;12.18;71.75
85984;BME280;76557;45.488;12.254;2024-03-07T13:42:27;101644.56;;;12.37;71.71
85984;BME280;76557;45.488;12.254;2024-03-07T13:46:23;101644.16;;;12.33;71.50
85984;BME280;76557;45.488;12.254;2024-03-07T13:50:18;101642.88;;;12.29;71.63
85984;BME280;76557;45.488;12.254;2024-03-07T13:54:14;101644.88;;;12.49;70.85
85984;BME280;76557;45.488;12.254;2024-03-07T14:32:20;101643.16;;;12.48;70.33
85984;BME280;76557;45.488;12.254;2024-03-07T14:36:16;101639.03;;;12.30;69.38
85984;BME280;76557;45.488;12.254;2024-03-07T14:40:14;101630.72;;;12.17;69.99
85984;BME280;76557;45.488;12.254;2024-03-07T14:44:10;101629.66;;;12.18;70.09
85984;BME280;76557;45.488;12.254;2024-03-07T14:48:06;101629.41;;;12.07;70.34
85984;BME280;76557;45.488;12.254;2024-03-07T14:52:05;101641.09;;;12.15;69.72
85984;BME280;76557;45.488;12.254;2024-03-07T14:56:06;101639.41;;;12.14;69.33
85984;BME280;76557;45.488;12.254;2024-03-07T15:00:02;101639.75;;;12.05;69.20
85984;BME280;76557;45.488;12.254;2024-03-07T15:03:58;101634.28;;;12.11;69.16
85984;BME280;76557;45.488;12.254;2024-03-07T15:07:54;101634.28;;;12.11;68.36
85984;BME280;76557;45.488;12.254;2024-03-07T15:11:50;101631.31;;;12.06;68.79
85984;BME280;76557;45.488;12.254;2024-03-07T15:15:46;101636.00;;;12.12;67.52
85984;BME280;76557;45.488;12.254;2024-03-07T15:19:41;101636.00;;;12.12;68.36
85984;BME280;76557;45.488;12.254;2024-03-07T15:23:36;101631.34;;;12.13;68.35
85984;BME280;76557;45.488;12.254;2024-03-07T15:27:32;101625.78;;;12.06;67.93
85984;BME280;76557;45.488;12.254;2024-03-07T15:31:29;101625.44;;;12.16;68.14
85984;BME280;76557;45.488;12.254;2024-03-07T15:35:24;101617.25;;;12.36;67.84
85984;BME280;76557;45.488;12.254;2024-03-07T15:39:21;101617.50;;;12.47;68.21
85984;BME280;76557;45.488;12.254;2024-03-07T15:43:21;101613.03;;;12.40;68.91
85984;BME280;76557;45.488;12.254;2024-03-07T15:47:19;101607.28;;;12.34;69.08
85984;BME280;76557;45.488;12.254;2024-03-07T15:51:15;101597.94;;;12.29;68.62
85984;BME280;76557;45.488;12.254;2024-03-07T15:55:11;101614.38;;;12.09;68.31
85984;BME280;76557;45.488;12.254;2024-03-07T15:59:10;101602.88;;;11.99;68.91
85984;BME280;76557;45.488;12.254;2024-03-07T16:03:06;101615.22;;;12.03;69.34
85984;BME280;76557;45.488;12.254;2024-03-07T16:07:03;101616.72;;;12.12;69.51
85984;BME280;76557;45.488;12.254;2024-03-07T16:10:58;101612.69;;;12.08;69.40
85984;BME280;76557;45.488;12.254;2024-03-07T16:14:54;101610.97;;;12.07;70.31
85984;BME280;76557;45.488;12.254;2024-03-07T16:18:51;101603.38;;;12.09;70.27
85984;BME280;76557;45.488;12.254;2024-03-07T16:22:47;101607.81;;;12.17;68.44
85984;BME280;76557;45.488;12.254;2024-03-07T16:26:46;101605.53;;;12.20;67.09
85984;BME280;76557;45.488;12.254;2024-03-07T16:30:41;101606.81;;;12.24;67.08
85984;BME280;76557;45.488;12.254;2024-03-07T16:34:39;101606.81;;;12.24;67.15
85984;BME280;76557;45.488;12.254;2024-03-07T16:38:35;101611.91;;;12.27;67.29
85984;BME280;76557;45.488;12.254;2024-03-07T16:42:30;101615.06;;;12.24;68.19
85984;BME280;76557;45.488;12.254;2024-03-07T16:46:26;101608.94;;;12.22;68.30
85984;BME280;76557;45.488;12.254;2024-03-07T16:50:26;101614.44;;;12.22;68.51
85984;BME280;76557;45.488;12.254;2024-03-07T16:54:22;101603.63;;;12.21;69.20
85984;BME280;76557;45.488;12.254;2024-03-07T16:58:18;101619.53;;;12.25;68.93
85984;BME280;76557;45.488;12.254;2024-03-07T17:02:14;101621.00;;;12.21;68.83
85984;BME280;76557;45.488;12.254;2024-03-07T17:06:09;101630.97;;;12.22;69.36
85984;BME280;76557;45.488;12.254;2024-03-07T17:10:05;101623.72;;;12.15;70.87
85984;BME280;76557;45.488;12.254;2024-03-07T17:14:01;101623.69;;;12.08;71.37
85984;BME280;76557;45.488;12.254;2024-03-07T17:17:57;101625.78;;;12.06;71.56
85984;BME280;76557;45.488;12.254;2024-03-07T17:21:54;101627.31;;;12.09;71.67
85984;BME280;76557;45.488;12.254;2024-03-07T17:25:49;101630.91;;;12.09;72.16
85984;BME280;76557;45.488;12.254;2024-03-07T17:29:47;101640.63;;;12.05;72.73
85984;BME280;76557;45.488;12.254;2024-03-07T17:33:42;101633.38;;;11.98;73.03
85984;BME280;76557;45.488;12.254;2024-03-07T17:37:38;101642.22;;;11.86;74.25
85984;BME280;76557;45.488;12.254;2024-03-07T17:41:34;101635.69;;;11.66;75.07
85984;BME280;76557;45.488;12.254;2024-03-07T17:45:30;101645.34;;;11.55;75.41
85984;BME280;76557;45.488;12.254;2024-03-07T17:49:32;101649.09;;;11.48;76.37
85984;BME280;76557;45.488;12.254;2024-03-07T17:53:27;101639.88;;;11.34;76.81
85984;BME280;76557;45.488;12.254;2024-03-07T17:57:24;101642.78;;;11.26;78.11
85984;BME280;76557;45.488;12.254;2024-03-07T18:01:23;101639.13;;;11.19;78.50
85984;BME280;76557;45.488;12.254;2024-03-07T18:05:21;101633.97;;;11.09;79.50
85984;BME280;76557;45.488;12.254;2024-03-07T18:09:16;101646.63;;;11.10;79.21
85984;BME280;76557;45.488;12.254;2024-03-07T18:13:22;101652.47;;;11.01;79.22
85984;BME280;76557;45.488;12.254;2024-03-07T18:17:18;101655.44;;;10.99;79.42
85984;BME280;76557;45.488;12.254;2024-03-07T18:21:13;101659.63;;;10.95;78.29
85984;BME280;76557;45.488;12.254;2024-03-07T18:25:09;101665.06;;;10.89;76.80
85984;BME280;76557;45.488;12.254;2024-03-07T18:29:04;101640.03;;;10.62;76.63
85984;BME280;76557;45.488;12.254;2024-03-07T18:33:02;101656.22;;;10.57;77.14
85984;BME280;76557;45.488;12.254;2024-03-07T18:37:04;101663.84;;;10.55;77.74
85984;BME280;76557;45.488;12.254;2024-03-07T18:41:07;101661.00;;;10.49;77.41
85984;BME280;76557;45.488;12.254;2024-03-07T18:45:11;101660.25;;;10.40;77.96
85984;BME280;76557;45.488;12.254;2024-03-07T18:49:07;101642.56;;;10.28;78.61
85984;BME280;76557;45.488;12.254;2024-03-07T18:53:08;101664.44;;;10.36;77.75
85984;BME280;76557;45.488;12.254;2024-03-07T18:57:04;101675.13;;;10.31;77.68
85984;BME280;76557;45.488;12.254;2024-03-07T19:01:05;101662.47;;;10.30;77.25
85984;BME280;76557;45.488;12.254;2024-03-07T19:05:02;101664.53;;;10.28;77.38
85984;BME280;76557;45.488;12.254;2024-03-07T19:09:02;101663.78;;;10.19;77.59
85984;BME280;76557;45.488;12.254;2024-03-07T19:12:58;101667.06;;;10.15;78.46
85984;BME280;76557;45.488;12.254;2024-03-07T19:16:54;101671.34;;;10.17;79.10
85984;BME280;76557;45.488;12.254;2024-03-07T19:20:50;101662.97;;;10.11;78.05
85984;BME280;76557;45.488;12.254;2024-03-07T19:24:46;101660.25;;;10.11;77.61
85984;BME280;76557;45.488;12.254;2024-03-07T19:28:42;101669.53;;;10.10;77.79
85984;BME280;76557;45.488;12.254;2024-03-07T19:32:38;101662.72;;;10.06;78.22
85984;BME280;76557;45.488;12.254;2024-03-07T19:36:37;101661.94;;;10.12;78.67
85984;BME280;76557;45.488;12.254;2024-03-07T19:40:34;101676.06;;;10.09;78.14
85984;BME280;76557;45.488;12.254;2024-03-07T19:44:29;101685.16;;;9.94;78.57
85984;BME280;76557;45.488;12.254;2024-03-07T19:48:28;101682.31;;;9.88;79.09
85984;BME280;76557;45.488;12.254;2024-03-07T19:52:23;101677.09;;;9.78;78.84
85984;BME280;76557;45.488;12.254;2024-03-07T19:56:19;101681.91;;;9.62;78.87
85984;BME280;76557;45.488;12.254;2024-03-07T20:00:18;101681.41;;;9.58;79.16
85984;BME280;76557;45.488;12.254;2024-03-07T20:04:14;101680.09;;;9.54;79.50
85984;BME280;76557;45.488;12.254;2024-03-07T20:08:11;101678.75;;;9.50;79.33
85984;BME280;76557;45.488;12.254;2024-03-07T20:12:09;101682.53;;;9.49;78.99
85984;BME280;76557;45.488;12.254;2024-03-07T20:16:05;101684.25;;;9.50;78.81
85984;BME280;76557;45.488;12.254;2024-03-07T20:20:02;101684.59;;;9.47;78.88
85984;BME280;76557;45.488;12.254;2024-03-07T20:24:08;101680.16;;;9.46;78.90
85984;BME280;76557;45.488;12.254;2024-03-07T20:28:05;101691.31;;;9.44;78.79
85984;BME280;76557;45.488;12.254;2024-03-07T20:32:04;101698.38;;;9.39;78.93
85984;BME280;76557;45.488;12.254;2024-03-07T20:36:00;101698.78;;;9.36;79.01
85984;BME280;76557;45.488;12.254;2024-03-07T20:39:57;101691.94;;;9.32;78.64
85984;BME280;76557;45.488;12.254;2024-03-07T20:43:53;101694.78;;;9.24;78.88
85984;BME280;76557;45.488;12.254;2024-03-07T20:47:49;101700.78;;;9.19;79.07
85984;BME280;76557;45.488;12.254;2024-03-07T20:51:45;101700.47;;;9.14;79.80
85984;BME280;76557;45.488;12.254;2024-03-07T20:55:40;101694.53;;;9.10;79.96
85984;BME280;76557;45.488;12.254;2024-03-07T20:59:36;101697.91;;;9.12;79.91
85984;BME280;76557;45.488;12.254;2024-03-07T21:03:31;101689.75;;;9.04;79.92